Akron Canton Regional Airport
KCAK : rendu visible

Aérodrome :











RETROUVEZ-NOUS SUR...

 
LOGIN :

S'inscrire | Disclaimer

   EN    FR    IT 

 









Légende :    VFR   VFR Marginal   IFR   IFR Intensif   IFR Très Intensif
Visi : 
Plafond : 
>= 8 km
>= 3000ft
5 à 8 km
1000 à 3000 ft
1500m à 5 km
500 à 1000 ft
800 à 1500m
200 à 500 ft
< 800m
< 200 ft
Symboles :   Orages  Brouillard  Fortes neiges  Fortes précipitations  Vent > 20 kt






- Altitude de l'aérodrome : 1228 ft
- Code IATA : CAK


KCAK - Akron Canton Regional

DERNIER METAR :
  • 241151Z 21006KT 10SM FEW250 01/M05 A2996 RMK AO2 SLP156 T00111050 10039 20006 55000

METARs EXPIRÉS :
  • 241051Z 20006KT 10SM FEW250 02/M05 A2996 RMK AO2 SLP153 T00171050
  • 240951Z 21007KT 10SM CLR 01/M06 A2996 RMK AO2 SLP152 T00111056

TAF KCAK
Valide du 24 à 12h jusqu'au 25 à 12h UTC


241127Z 2412/2512 19005KT P6SM FEW250
FM250000 15005KT P6SM -RA OVC035
FM250200 13006KT 4SM -RA BR OVC020
FM250400 11006KT 3SM -RA BR OVC008
FM251100 08006KT 5SM -RA BR OVC010



MET'MAP, la Météo Aéronautique d'un coup d'oeil ! - Copyright ORBIFLY Décembre 2007 - Disclaimer

ORBIFLY MET'MAP TEAM :

Programmation & Développement : Alexandra Zaïnal
Sur une idée originale de : Baudouin d'Aumeries
Assistance à la programmation : Marc-Olivier Méhu
Soutien technique & logistique : Manuel Goepfert

Contact : metmap@orbifly.com




SOURCES & CREDITS :

   NOAA       Earth
Advisory